Time;durP1;ratioP1;P1;durP2;ratioP2;P2;SDS_P1;SDS_P2;PMS_P1;PMS_P2;Temp;Humidity;BMP_temperature;BMP_pressure;BME280_temperature;BME280_humidity;BME280_pressure;Samples;Min_cycle;Max_cycle;Signal;HPM_P1;HPM_P2
2023/08/04 00:01:11;;;;;;;0.63;0.63;;;;;;;19.18;88.22;99080.22;5074479;28;20044;-63
2023/08/04 00:03:42;;;;;;;0.43;0.43;;;;;;;19.16;88.45;99092.41;5074652;28;20032;-64
2023/08/04 00:06:11;;;;;;;1.10;0.80;;;;;;;19.13;88.71;99100.28;5074780;28;20041;-63
2023/08/04 00:08:40;;;;;;;1.58;1.27;;;;;;;19.13;88.63;99092.53;5074399;28;20044;-63
2023/08/04 00:11:09;;;;;;;0.60;0.60;;;;;;;19.11;88.92;99084.00;5074576;28;20040;-63
2023/08/04 00:13:38;;;;;;;1.23;1.13;;;;;;;19.08;88.83;99076.34;5074203;28;20044;-64
2023/08/04 00:16:07;;;;;;;0.57;0.57;;;;;;;19.07;88.72;99092.81;5075054;28;20041;-64
2023/08/04 00:18:37;;;;;;;0.40;0.40;;;;;;;19.01;88.49;99087.88;5074403;28;20513;-63
2023/08/04 00:21:07;;;;;;;1.13;0.80;;;;;;;18.95;88.58;99093.34;5074326;28;20056;-64
2023/08/04 00:23:36;;;;;;;0.40;0.40;;;;;;;18.88;88.65;99097.13;5074034;28;20135;-64
2023/08/04 00:26:05;;;;;;;0.93;0.73;;;;;;;18.83;88.42;99099.06;5074003;28;20056;-63
2023/08/04 00:28:34;;;;;;;0.75;0.57;;;;;;;18.82;88.41;99076.69;5074263;28;20300;-62
2023/08/04 00:31:03;;;;;;;0.63;0.63;;;;;;;18.83;88.40;99070.59;5074005;28;20520;-63
2023/08/04 00:33:32;;;;;;;1.10;0.60;;;;;;;18.78;88.34;99075.13;5072944;28;20044;-62
2023/08/04 00:36:01;;;;;;;1.83;1.45;;;;;;;18.70;88.43;99072.88;5072669;28;20047;-63
2023/08/04 00:38:32;;;;;;;0.40;0.40;;;;;;;18.66;88.76;99077.38;5074144;28;20127;-64
2023/08/04 00:41:01;;;;;;;0.85;0.85;;;;;;;18.65;88.89;99086.00;5072931;28;20514;-63
2023/08/04 00:43:30;;;;;;;1.48;0.73;;;;;;;18.62;89.00;99088.72;5074074;28;20044;-64
2023/08/04 00:45:59;;;;;;;1.17;0.95;;;;;;;18.57;89.15;99088.06;5073645;28;20044;-64
2023/08/04 00:48:28;;;;;;;0.60;0.60;;;;;;;18.49;89.32;99091.91;5072588;28;20075;-64
2023/08/04 00:50:57;;;;;;;2.30;1.35;;;;;;;18.40;89.53;99090.53;5073544;28;20094;-64
2023/08/04 00:53:26;;;;;;;0.90;0.85;;;;;;;18.39;89.84;99086.25;5071866;28;20044;-64
2023/08/04 00:55:57;;;;;;;1.23;0.77;;;;;;;18.41;90.03;99087.00;5073873;28;20066;-65
2023/08/04 00:58:25;;;;;;;0.40;0.40;;;;;;;18.46;90.17;99098.03;5073748;28;20124;-63
2023/08/04 01:00:54;;;;;;;1.57;1.47;;;;;;;18.50;90.23;99099.56;5073509;28;20040;-64
2023/08/04 01:03:26;;;;;;;0.50;0.50;;;;;;;18.49;90.21;99110.84;5072451;28;20508;-64
2023/08/04 01:06:03;;;;;;;3.70;2.13;;;;;;;18.51;90.15;99111.59;5073504;28;20052;-65
2023/08/04 01:08:36;;;;;;;1.70;1.23;;;;;;;18.51;90.19;99097.84;5073578;28;20494;-64
2023/08/04 01:11:12;;;;;;;0.70;0.70;;;;;;;18.48;90.30;99096.22;5073898;28;20115;-64
2023/08/04 01:13:45;;;;;;;0.50;0.50;;;;;;;18.41;90.39;99102.53;5074064;28;20064;-64
2023/08/04 01:16:14;;;;;;;0.70;0.68;;;;;;;18.40;90.63;99106.03;5073702;28;20117;-63
2023/08/04 01:18:44;;;;;;;0.57;0.57;;;;;;;18.37;90.74;99094.97;5073409;28;20048;-64
2023/08/04 01:21:14;;;;;;;1.58;1.15;;;;;;;18.36;90.96;99078.63;5073370;28;20041;-64
2023/08/04 01:23:45;;;;;;;0.60;0.60;;;;;;;18.42;90.99;99078.38;5073344;28;20048;-63
2023/08/04 01:26:15;;;;;;;0.70;0.70;;;;;;;18.47;90.94;99081.63;5073601;28;20045;-64
2023/08/04 01:28:46;;;;;;;0.50;0.50;;;;;;;18.43;90.86;99090.38;5073590;28;20037;-64
2023/08/04 01:31:15;;;;;;;0.55;0.50;;;;;;;18.48;90.93;99088.47;5073297;28;20051;-65
2023/08/04 01:33:44;;;;;;;0.40;0.40;;;;;;;18.44;90.85;99081.72;5073322;28;20040;-64
2023/08/04 01:36:15;;;;;;;1.50;0.80;;;;;;;18.40;90.91;99082.78;5072946;28;20041;-64
2023/08/04 01:38:43;;;;;;;0.60;0.60;;;;;;;18.44;90.72;99101.56;5073216;28;20135;-64
2023/08/04 01:41:12;;;;;;;0.57;0.57;;;;;;;18.49;90.70;99108.25;5072066;28;20128;-64
2023/08/04 01:43:41;;;;;;;0.50;0.50;;;;;;;18.50;90.67;99102.16;5073122;28;20292;-62
2023/08/04 01:46:10;;;;;;;0.40;0.40;;;;;;;18.55;90.39;99105.41;5072241;28;20071;-64
2023/08/04 01:48:41;;;;;;;1.20;1.02;;;;;;;18.48;90.11;99111.72;5073136;28;20327;-63
2023/08/04 01:51:10;;;;;;;2.78;0.93;;;;;;;18.48;90.36;99119.47;5072254;28;20435;-62
2023/08/04 01:53:40;;;;;;;1.57;1.00;;;;;;;18.52;90.02;99118.44;5072991;28;20041;-64
2023/08/04 01:56:09;;;;;;;0.80;0.80;;;;;;;18.46;89.93;99113.53;5073102;28;20285;-63
2023/08/04 01:58:38;;;;;;;1.07;0.97;;;;;;;18.47;89.66;99117.81;5072144;28;20486;-64
2023/08/04 02:01:07;;;;;;;0.47;0.47;;;;;;;18.47;89.60;99116.97;5071816;28;20047;-64
2023/08/04 02:03:36;;;;;;;0.98;0.93;;;;;;;18.43;89.48;99108.47;5074411;28;20044;-64
2023/08/04 02:06:05;;;;;;;1.17;1.08;;;;;;;18.46;89.29;99100.63;5077324;28;20051;-64
2023/08/04 02:08:34;;;;;;;0.50;0.50;;;;;;;18.44;89.13;99107.56;5075482;28;20115;-63
2023/08/04 02:11:04;;;;;;;0.70;0.70;;;;;;;18.44;89.16;99107.56;5077128;28;20502;-63
2023/08/04 02:13:33;;;;;;;1.63;0.60;;;;;;;18.41;89.00;99110.28;5075982;28;20040;-63
2023/08/04 02:16:02;;;;;;;0.60;0.60;;;;;;;18.38;88.90;99117.31;5076836;28;20056;-63
2023/08/04 02:18:31;;;;;;;4.28;1.45;;;;;;;18.38;88.83;99117.31;5076458;28;20269;-64
2023/08/04 02:21:00;;;;;;;;;;;;;;;18.39;88.83;99124.16;5077211;28;20064;-64
2023/08/04 02:23:31;;;;;;;0.70;0.70;;;;;;;18.28;88.86;99131.53;5075105;28;19921;-64
2023/08/04 02:26:00;;;;;;;0.70;0.70;;;;;;;18.22;88.87;99135.19;5076356;28;20552;-64
2023/08/04 02:28:31;;;;;;;0.50;0.50;;;;;;;18.17;89.02;99142.28;5076527;28;20037;-63
2023/08/04 02:31:00;;;;;;;0.40;0.40;;;;;;;18.19;88.94;99143.03;5076288;28;20578;-63
2023/08/04 02:33:30;;;;;;;0.50;0.50;;;;;;;18.24;88.92;99146.28;5076263;28;20047;-63
2023/08/04 02:36:02;;;;;;;1.20;0.80;;;;;;;18.23;89.02;99154.97;5074748;28;20055;-64
2023/08/04 02:38:33;;;;;;;1.08;0.70;;;;;;;18.25;89.23;99158.31;5076016;28;20350;-64
2023/08/04 02:41:03;;;;;;;0.40;0.40;;;;;;;18.18;89.11;99167.22;5076374;28;20039;-64
2023/08/04 02:43:33;;;;;;;0.50;0.50;;;;;;;18.13;89.01;99174.31;5075940;28;20040;-64
2023/08/04 02:46:02;;;;;;;0.63;0.63;;;;;;;18.06;89.13;99178.03;5075999;28;20045;-64
2023/08/04 02:48:32;;;;;;;0.73;0.52;;;;;;;18.03;89.40;99168.66;5075844;28;20040;-64
2023/08/04 02:51:06;;;;;;;0.60;0.60;;;;;;;18.08;89.90;99171.06;5076128;28;20047;-64
2023/08/04 02:53:36;;;;;;;0.50;0.50;;;;;;;18.15;89.51;99172.50;5076064;28;20063;-64
2023/08/04 02:56:10;;;;;;;0.60;0.60;;;;;;;18.15;89.65;99175.06;5074636;28;20094;-64
2023/08/04 02:58:42;;;;;;;1.17;0.98;;;;;;;18.13;89.68;99184.63;5075762;28;20048;-64
2023/08/04 03:01:11;;;;;;;0.50;0.50;;;;;;;18.04;89.88;99188.41;5075756;28;20052;-64
2023/08/04 03:03:40;;;;;;;0.50;0.50;;;;;;;18.02;89.87;99181.59;5075900;28;20440;-64
2023/08/04 03:06:10;;;;;;;9.07;1.15;;;;;;;18.00;90.17;99180.84;5075491;28;20072;-64
2023/08/04 03:08:39;;;;;;;0.45;0.45;;;;;;;17.95;90.12;99177.59;5075463;28;20072;-64
2023/08/04 03:11:10;;;;;;;0.40;0.40;;;;;;;17.92;90.21;99170.78;5075503;28;20495;-64
2023/08/04 03:13:40;;;;;;;1.17;0.50;;;;;;;17.86;90.44;99168.47;5075512;28;20375;-64
2023/08/04 03:16:09;;;;;;;0.70;0.70;;;;;;;17.86;90.67;99183.09;5074506;28;20048;-64
2023/08/04 03:18:38;;;;;;;0.82;0.82;;;;;;;17.83;90.84;99190.97;5075337;28;20124;-64
2023/08/04 03:21:07;;;;;;;0.50;0.50;;;;;;;17.88;91.18;99194.22;5075219;28;20127;-64
2023/08/04 03:23:37;;;;;;;0.50;0.50;;;;;;;17.86;91.13;99214.94;5075545;28;20495;-65
2023/08/04 03:26:06;;;;;;;0.60;0.60;;;;;;;17.87;91.34;99223.53;5075207;28;20059;-65
2023/08/04 03:28:35;;;;;;;2.65;0.98;;;;;;;17.79;91.61;99220.38;5075102;28;20074;-65
2023/08/04 03:31:06;;;;;;;0.50;0.50;;;;;;;17.78;91.58;99223.88;5075321;28;20086;-65
2023/08/04 03:33:34;;;;;;;0.57;0.57;;;;;;;17.83;91.68;99221.94;5075052;28;20048;-65
2023/08/04 03:36:04;;;;;;;1.00;0.82;;;;;;;17.89;91.80;99219.16;5074743;28;20466;-65
2023/08/04 03:38:33;;;;;;;;;;;;;;;17.89;91.63;99216.56;5075591;28;20054;-65
2023/08/04 03:41:01;;;;;;;0.68;0.68;;;;;;;17.82;91.53;99212.53;5074790;28;19920;-64
2023/08/04 03:43:30;;;;;;;0.90;0.67;;;;;;;17.81;91.69;99213.41;5075293;28;20088;-64
2023/08/04 03:45:59;;;;;;;0.95;0.95;;;;;;;17.85;91.80;99208.09;5074774;28;20281;-64
2023/08/04 03:48:30;;;;;;;0.40;0.40;;;;;;;17.90;92.02;99213.09;5074769;28;20059;-65
2023/08/04 03:50:59;;;;;;;1.15;1.05;;;;;;;17.97;91.82;99209.38;5074897;28;20497;-65
2023/08/04 03:53:28;;;;;;;2.97;1.25;;;;;;;18.02;91.89;99207.44;5075062;28;20110;-64
2023/08/04 03:55:56;;;;;;;0.97;0.97;;;;;;;18.06;91.79;99203.84;5074620;28;20128;-64
2023/08/04 03:58:25;;;;;;;0.80;0.80;;;;;;;18.00;91.54;99201.50;5074560;28;20048;-65
2023/08/04 04:00:55;;;;;;;0.80;0.68;;;;;;;17.95;91.77;99206.00;5074748;28;20293;-65
2023/08/04 04:03:23;;;;;;;;;;;;;;;17.92;91.89;99219.03;5075168;28;20044;-65
2023/08/04 04:05:54;;;;;;;0.93;0.93;;;;;;;17.89;91.94;99211.41;5074425;28;19927;-65
2023/08/04 04:08:23;;;;;;;1.20;0.80;;;;;;;17.87;92.19;99208.03;5074917;28;20367;-64
2023/08/04 04:10:51;;;;;;;0.40;0.40;;;;;;;17.87;92.20;99202.88;5074541;28;20109;-65
2023/08/04 04:13:20;;;;;;;0.70;0.70;;;;;;;17.91;92.34;99194.09;5074574;28;20297;-65
2023/08/04 04:15:49;;;;;;;1.00;0.93;;;;;;;17.95;92.27;99187.91;5074228;28;20339;-65
2023/08/04 04:18:18;;;;;;;0.70;0.60;;;;;;;17.95;92.31;99187.91;5074686;28;20277;-65
2023/08/04 04:20:47;;;;;;;0.87;0.77;;;;;;;18.02;92.17;99186.78;5074104;28;20518;-64
2023/08/04 04:23:17;;;;;;;0.50;0.50;;;;;;;18.02;92.26;99173.88;5074055;28;20285;-64
2023/08/04 04:25:46;;;;;;;0.43;0.43;;;;;;;18.01;92.26;99169.63;5073970;28;20072;-65
2023/08/04 04:28:15;;;;;;;0.50;0.50;;;;;;;17.96;92.26;99150.88;5074056;28;20399;-65
2023/08/04 04:30:44;;;;;;;0.93;0.90;;;;;;;17.94;92.30;99147.53;5074515;28;20376;-65
2023/08/04 04:33:12;;;;;;;1.13;0.93;;;;;;;17.93;92.58;99145.81;5073932;28;20048;-65
2023/08/04 04:35:48;;;;;;;0.70;0.70;;;;;;;17.95;92.69;99136.28;5073700;28;20052;-67
2023/08/04 04:38:19;;;;;;;0.60;0.60;;;;;;;17.93;92.55;99130.31;5074692;28;20055;-66
2023/08/04 04:40:56;;;;;;;1.05;0.90;;;;;;;17.89;92.70;99139.09;5074481;28;20043;-65
2023/08/04 04:43:25;;;;;;;0.75;0.63;;;;;;;17.92;92.94;99159.66;5074076;28;20078;-65
2023/08/04 04:45:55;;;;;;;0.90;0.70;;;;;;;17.95;92.69;99180.16;5074052;28;20033;-65
2023/08/04 04:48:25;;;;;;;0.50;0.50;;;;;;;17.91;93.00;99194.09;5073737;28;20094;-65
2023/08/04 04:50:54;;;;;;;1.77;1.33;;;;;;;17.96;92.85;99202.53;5073979;28;20036;-64
2023/08/04 04:53:25;;;;;;;0.93;0.77;;;;;;;18.01;93.10;99200.59;5073936;28;20441;-64
2023/08/04 04:55:54;;;;;;;0.98;0.82;;;;;;;17.99;93.14;99217.91;5073969;28;20049;-64
2023/08/04 04:58:23;;;;;;;0.83;0.80;;;;;;;17.98;93.14;99214.47;5073863;28;20490;-64
2023/08/04 05:00:51;;;;;;;0.88;0.82;;;;;;;18.00;93.02;99214.41;5073865;28;20357;-64
2023/08/04 05:03:20;;;;;;;0.80;0.67;;;;;;;17.95;92.95;99195.66;5072522;28;20478;-64
2023/08/04 05:05:49;;;;;;;0.95;0.80;;;;;;;18.00;93.25;99198.91;5073501;28;20125;-64
2023/08/04 05:08:18;;;;;;;9.03;0.97;;;;;;;18.01;93.09;99187.69;5073212;28;20052;-65
2023/08/04 05:10:52;;;;;;;1.00;0.85;;;;;;;17.96;92.97;99189.63;5073996;28;20273;-64
2023/08/04 05:13:21;;;;;;;0.57;0.50;;;;;;;17.91;93.15;99186.38;5073420;28;20045;-65
2023/08/04 05:15:50;;;;;;;0.67;0.67;;;;;;;17.87;93.13;99182.22;5073469;28;20037;-64
2023/08/04 05:18:19;;;;;;;1.45;0.60;;;;;;;17.86;93.21;99180.53;5073966;28;20407;-65
2023/08/04 05:20:48;;;;;;;0.50;0.50;;;;;;;17.84;93.46;99172.00;5073252;28;20402;-64
2023/08/04 05:23:17;;;;;;;0.80;0.73;;;;;;;17.85;93.69;99177.09;5073113;28;20040;-64
2023/08/04 05:25:46;;;;;;;0.50;0.50;;;;;;;17.91;93.57;99179.47;5073258;28;20046;-64
2023/08/04 05:28:27;;;;;;;1.00;0.85;;;;;;;17.88;93.21;99178.72;5074082;28;20044;-65
2023/08/04 05:30:58;;;;;;;0.75;0.68;;;;;;;17.86;93.62;99175.38;5073295;28;20040;-65
2023/08/04 05:33:28;;;;;;;0.55;0.55;;;;;;;17.93;93.69;99171.66;5073235;28;20052;-64
2023/08/04 05:35:58;;;;;;;0.73;0.73;;;;;;;17.94;93.75;99178.50;5073091;28;20072;-64
2023/08/04 05:38:27;;;;;;;0.50;0.50;;;;;;;17.93;93.64;99177.66;5074571;28;20032;-65
2023/08/04 05:40:56;;;;;;;1.25;0.73;;;;;;;17.95;93.71;99175.00;5077216;28;20124;-64
2023/08/04 05:43:26;;;;;;;6.35;0.63;;;;;;;17.95;93.93;99172.41;5077113;28;20049;-64
2023/08/04 05:45:55;;;;;;;0.55;0.55;;;;;;;18.01;93.77;99175.63;5077197;28;20078;-65
2023/08/04 05:48:24;;;;;;;0.63;0.52;;;;;;;18.07;93.74;99185.72;5076980;28;20109;-65
2023/08/04 05:50:55;;;;;;;0.40;0.40;;;;;;;18.11;93.77;99191.63;5075828;28;20094;-65
2023/08/04 05:53:24;;;;;;;0.98;0.50;;;;;;;18.14;93.72;99191.47;5077516;28;20390;-65
2023/08/04 05:55:53;;;;;;;0.60;0.60;;;;;;;18.14;93.66;99196.63;5077220;28;20044;-65
2023/08/04 05:58:22;;;;;;;;;;;;;;;18.18;93.63;99193.06;5077252;28;20036;-65
2023/08/04 06:00:52;;;;;;;0.70;0.70;;;;;;;18.15;93.57;99193.16;5076774;28;19920;-65
2023/08/04 06:03:21;;;;;;;1.20;1.10;;;;;;;18.13;93.44;99194.97;5076800;28;20068;-65
2023/08/04 06:05:50;;;;;;;2.08;1.05;;;;;;;18.14;93.46;99188.06;5076594;28;20094;-65
2023/08/04 06:08:19;;;;;;;0.67;0.67;;;;;;;18.12;93.36;99188.09;5076558;28;20071;-65
2023/08/04 06:10:48;;;;;;;0.70;0.70;;;;;;;18.11;93.12;99190.75;5077222;28;20036;-64
2023/08/04 06:13:17;;;;;;;0.38;0.38;;;;;;;18.10;93.14;99195.06;5075625;28;20102;-65
2023/08/04 06:15:47;;;;;;;0.80;0.80;;;;;;;18.08;92.94;99191.72;5076506;28;20047;-65
2023/08/04 06:18:17;;;;;;;0.60;0.60;;;;;;;18.15;92.86;99211.25;5076294;28;20045;-65
2023/08/04 06:20:47;;;;;;;0.90;0.90;;;;;;;18.16;92.68;99220.69;5076448;28;20047;-64
2023/08/04 06:23:16;;;;;;;0.50;0.50;;;;;;;18.17;92.65;99224.94;5076404;28;20494;-64
2023/08/04 06:25:45;;;;;;;0.50;0.50;;;;;;;18.20;92.67;99221.41;5076271;28;20057;-65
2023/08/04 06:28:14;;;;;;;0.70;0.70;;;;;;;18.18;92.54;99208.56;5076818;28;20041;-65
2023/08/04 06:30:42;;;;;;;0.55;0.55;;;;;;;18.16;92.42;99199.19;5076549;28;20048;-65
2023/08/04 06:33:11;;;;;;;0.50;0.50;;;;;;;18.14;92.46;99188.88;5076832;28;20410;-65
2023/08/04 06:35:44;;;;;;;0.98;0.93;;;;;;;18.13;92.37;99192.38;5075806;28;20759;-65
2023/08/04 06:38:13;;;;;;;0.40;0.40;;;;;;;18.07;92.41;99180.53;5076031;28;20049;-65
2023/08/04 06:40:42;;;;;;;0.60;0.60;;;;;;;18.06;92.33;99188.38;5076280;28;20036;-65
2023/08/04 06:43:11;;;;;;;0.30;0.30;;;;;;;18.06;92.35;99191.78;5076291;28;20033;-64
2023/08/04 06:45:40;;;;;;;0.70;0.70;;;;;;;18.08;92.17;99200.31;5076209;28;20068;-65
2023/08/04 06:48:09;;;;;;;0.60;0.60;;;;;;;18.09;92.20;99203.75;5075886;28;20443;-65
2023/08/04 06:50:37;;;;;;;0.50;0.50;;;;;;;18.08;92.16;99209.81;5074570;28;20041;-64
2023/08/04 06:53:09;;;;;;;0.50;0.50;;;;;;;18.13;92.25;99218.22;5075856;28;20269;-64
2023/08/04 06:55:38;;;;;;;0.57;0.57;;;;;;;18.20;91.97;99222.25;5075810;28;20033;-65
2023/08/04 06:58:15;;;;;;;0.47;0.47;;;;;;;18.20;91.98;99230.00;5076113;28;20049;-65
2023/08/04 07:00:45;;;;;;;0.52;0.52;;;;;;;18.21;91.85;99221.31;5075638;28;20043;-64
2023/08/04 07:03:14;;;;;;;1.15;0.90;;;;;;;18.28;91.80;99215.03;5075874;28;20473;-65
2023/08/04 07:05:43;;;;;;;;;;;;;;;18.32;91.80;99221.75;5075949;28;20069;-64
2023/08/04 07:08:13;;;;;;;0.52;0.52;;;;;;;18.35;91.65;99226.81;5091240;28;20375;-65
2023/08/04 07:10:42;;;;;;;0.60;0.60;;;;;;;18.32;91.68;99224.34;5075463;28;20102;-66
2023/08/04 07:13:10;;;;;;;0.53;0.53;;;;;;;18.25;91.61;99228.06;5075702;28;20136;-65
2023/08/04 07:15:39;;;;;;;0.52;0.52;;;;;;;18.28;91.66;99230.53;5075671;28;20380;-65
2023/08/04 07:18:08;;;;;;;0.75;0.75;;;;;;;18.28;91.89;99235.72;5075612;28;20033;-65
2023/08/04 07:20:37;;;;;;;0.77;0.77;;;;;;;18.34;91.88;99230.28;5075618;28;20506;-65
2023/08/04 07:23:06;;;;;;;0.63;0.63;;;;;;;18.38;91.73;99229.25;5075519;28;20097;-65
2023/08/04 07:25:36;;;;;;;0.60;0.60;;;;;;;18.37;91.86;99229.34;5075555;28;20464;-65
2023/08/04 07:28:05;;;;;;;0.60;0.60;;;;;;;18.41;91.67;99231.72;5075147;28;20105;-65
2023/08/04 07:30:37;;;;;;;0.45;0.45;;;;;;;18.46;91.71;99235.00;5075128;28;20378;-65
2023/08/04 07:33:07;;;;;;;1.15;1.10;;;;;;;18.48;91.59;99233.19;5075309;28;20045;-65
2023/08/04 07:35:36;;;;;;;0.47;0.47;;;;;;;18.54;91.51;99238.13;5075080;28;20040;-65
2023/08/04 07:38:04;;;;;;;0.63;0.63;;;;;;;18.47;91.21;99236.69;5075052;28;20415;-65
2023/08/04 07:40:38;;;;;;;0.70;0.70;;;;;;;18.43;91.21;99227.34;5074874;28;20403;-65
2023/08/04 07:43:11;;;;;;;0.50;0.50;;;;;;;18.47;91.06;99226.38;5075200;28;20441;-65
2023/08/04 07:45:41;;;;;;;0.50;0.50;;;;;;;18.47;91.17;99222.94;5074815;28;20058;-66
2023/08/04 07:48:10;;;;;;;0.65;0.57;;;;;;;18.51;91.03;99230.50;5074666;28;20045;-65
2023/08/04 07:50:41;;;;;;;0.40;0.40;;;;;;;18.57;90.96;99227.66;5074623;28;20068;-65
2023/08/04 07:53:10;;;;;;;0.88;0.60;;;;;;;18.53;90.79;99226.09;5075241;28;20138;-65
2023/08/04 07:55:39;;;;;;;0.50;0.50;;;;;;;18.56;90.88;99226.00;5073900;28;20082;-65
2023/08/04 07:58:10;;;;;;;0.55;0.55;;;;;;;18.57;90.67;99225.06;5074490;28;20490;-66
2023/08/04 08:00:40;;;;;;;0.40;0.40;;;;;;;18.56;90.59;99226.00;5072927;28;20066;-66
2023/08/04 08:03:08;;;;;;;0.40;0.40;;;;;;;18.56;90.46;99220.81;5074456;28;20037;-67
2023/08/04 08:05:37;;;;;;;0.60;0.60;;;;;;;18.61;90.61;99221.47;5074364;28;20105;-66
2023/08/04 08:08:06;;;;;;;0.70;0.70;;;;;;;18.69;90.42;99223.75;5074919;28;20086;-66
2023/08/04 08:10:35;;;;;;;0.80;0.77;;;;;;;18.73;90.38;99223.56;5074693;28;20052;-66
2023/08/04 08:13:04;;;;;;;0.70;0.70;;;;;;;18.77;90.21;99213.06;5074864;28;20402;-64
2023/08/04 08:15:35;;;;;;;0.60;0.60;;;;;;;18.87;90.27;99220.41;5074114;28;20048;-66
2023/08/04 08:18:04;;;;;;;0.65;0.65;;;;;;;18.95;90.10;99227.84;5074159;28;20048;-66
2023/08/04 08:20:33;;;;;;;4.50;1.03;;;;;;;18.98;90.16;99238.06;5090129;28;20063;-66
2023/08/04 08:23:02;;;;;;;0.50;0.50;;;;;;;18.95;90.22;99225.25;5074005;28;20273;-66
2023/08/04 08:25:32;;;;;;;0.40;0.40;;;;;;;18.96;90.11;99219.16;5073995;28;20076;-66
2023/08/04 08:28:00;;;;;;;0.40;0.40;;;;;;;18.97;89.94;99216.53;5074466;28;20147;-66
2023/08/04 08:30:30;;;;;;;0.90;0.80;;;;;;;18.96;89.80;99214.00;5074305;28;20101;-67
2023/08/04 08:33:00;;;;;;;0.60;0.60;;;;;;;18.99;89.68;99214.72;5074220;28;20101;-67
2023/08/04 08:35:29;;;;;;;0.40;0.40;;;;;;;18.94;89.13;99210.63;5073865;28;20130;-69
2023/08/04 08:37:58;;;;;;;0.47;0.47;;;;;;;18.97;88.97;99200.16;5074520;28;20060;-66
2023/08/04 08:40:28;;;;;;;0.40;0.40;;;;;;;19.04;88.98;99211.94;5073669;28;20080;-66
2023/08/04 08:42:59;;;;;;;;;;;;;;;19.11;88.87;99224.53;5073918;28;20056;-65
2023/08/04 08:45:28;;;;;;;0.80;0.73;;;;;;;19.19;88.71;99229.41;5073825;28;20278;-66
2023/08/04 08:47:58;;;;;;;0.45;0.45;;;;;;;19.30;88.58;99233.19;5074298;28;20056;-66
2023/08/04 08:50:29;;;;;;;0.50;0.50;;;;;;;19.41;88.37;99227.59;5073712;28;20044;-65
2023/08/04 08:53:03;;;;;;;0.85;0.80;;;;;;;19.44;88.21;99236.94;5073926;28;20102;-66
2023/08/04 08:55:33;;;;;;;0.60;0.60;;;;;;;19.43;87.68;99228.38;5073970;28;20055;-64
2023/08/04 08:58:02;;;;;;;;;;;;;;;19.52;87.62;99229.69;5074013;28;20036;-64
2023/08/04 09:00:31;;;;;;;;;;;;;;;19.60;87.59;99228.47;5074047;28;19920;-64
2023/08/04 09:03:00;;;;;;;0.60;0.60;;;;;;;19.74;87.55;99230.44;5073467;28;19921;-64
2023/08/04 09:05:31;;;;;;;0.50;0.50;;;;;;;19.81;87.07;99224.91;5073490;28;20044;-64
2023/08/04 09:08:00;;;;;;;0.50;0.50;;;;;;;19.95;86.43;99225.13;5073779;28;20490;-65
2023/08/04 09:10:29;;;;;;;0.70;0.70;;;;;;;20.15;85.96;99226.78;5073706;28;20040;-64
2023/08/04 09:12:58;;;;;;;0.50;0.50;;;;;;;20.16;85.24;99227.59;5072656;28;20051;-65
2023/08/04 09:15:34;;;;;;;0.73;0.73;;;;;;;20.13;83.98;99222.59;5073422;28;20043;-65
2023/08/04 09:18:07;;;;;;;0.50;0.50;;;;;;;20.04;83.07;99219.50;5073477;28;20048;-63
2023/08/04 09:20:37;;;;;;;0.90;0.85;;;;;;;20.16;82.99;99212.06;5073951;28;20082;-64
2023/08/04 09:23:11;;;;;;;1.83;1.05;;;;;;;20.23;82.85;99209.13;5073201;28;20045;-64
2023/08/04 09:25:52;;;;;;;0.73;0.73;;;;;;;20.39;83.05;99204.06;5073676;28;20044;-65
2023/08/04 09:28:21;;;;;;;0.80;0.80;;;;;;;20.39;83.07;99206.66;5073747;28;20041;-65
2023/08/04 09:31:02;;;;;;;0.60;0.60;;;;;;;20.46;82.66;99218.41;5073358;28;20048;-62
2023/08/04 09:33:31;;;;;;;1.60;0.90;;;;;;;20.57;82.42;99214.38;5073213;28;20045;-64
2023/08/04 09:36:06;;;;;;;0.50;0.50;;;;;;;20.67;81.93;99209.59;5073014;28;20052;-64
2023/08/04 09:38:36;;;;;;;0.50;0.50;;;;;;;20.80;81.94;99208.09;5073271;28;20040;-64
2023/08/04 09:41:07;;;;;;;0.52;0.52;;;;;;;20.85;81.56;99197.47;5073493;28;20124;-64
2023/08/04 09:43:43;;;;;;;0.40;0.40;;;;;;;20.84;81.03;99201.81;5074278;28;20052;-64
2023/08/04 09:46:12;;;;;;;0.70;0.70;;;;;;;20.76;80.44;99206.53;5073211;28;20072;-65
2023/08/04 09:48:41;;;;;;;0.50;0.50;;;;;;;20.75;80.32;99215.25;5071937;28;20037;-64
2023/08/04 09:51:14;;;;;;;4.78;0.75;;;;;;;20.75;80.08;99223.03;5073270;28;20036;-64
2023/08/04 09:53:45;;;;;;;0.50;0.50;;;;;;;20.88;80.13;99213.72;5073342;28;20448;-64
2023/08/04 09:56:16;;;;;;;0.40;0.40;;;;;;;21.00;79.82;99214.84;5073125;28;20049;-64
2023/08/04 09:58:46;;;;;;;0.40;0.40;;;;;;;21.06;79.63;99212.84;5073016;28;20044;-65
2023/08/04 10:01:16;;;;;;;0.77;0.77;;;;;;;21.10;79.20;99208.31;5073044;28;20043;-65
2023/08/04 10:03:50;;;;;;;0.90;0.75;;;;;;;21.14;78.84;99210.66;5073172;28;20118;-64
2023/08/04 10:06:21;;;;;;;0.50;0.50;;;;;;;21.18;78.27;99203.56;5072869;28;20048;-65
2023/08/04 10:08:53;;;;;;;3.13;1.15;;;;;;;21.25;78.04;99200.59;5073253;28;20462;-64
2023/08/04 10:11:23;;;;;;;0.40;0.40;;;;;;;21.35;77.30;99209.56;5073193;28;20127;-65
2023/08/04 10:13:55;;;;;;;0.50;0.50;;;;;;;21.40;76.91;99195.50;5073027;28;20040;-64
2023/08/04 10:16:28;;;;;;;0.85;0.85;;;;;;;21.34;76.46;99197.50;5073141;28;20051;-64
2023/08/04 10:19:01;;;;;;;0.68;0.68;;;;;;;21.25;76.31;99187.63;5073149;28;20525;-64
2023/08/04 10:21:36;;;;;;;0.50;0.50;;;;;;;21.17;76.11;99173.34;5073091;28;20049;-64
2023/08/04 10:24:13;;;;;;;0.95;0.95;;;;;;;21.25;76.52;99177.22;5073855;28;20048;-65
2023/08/04 10:26:47;;;;;;;0.50;0.50;;;;;;;21.35;76.72;99183.59;5076621;28;20440;-64
2023/08/04 10:29:17;;;;;;;0.40;0.40;;;;;;;21.26;76.47;99202.25;5075104;28;20055;-64
2023/08/04 10:31:52;;;;;;;0.40;0.40;;;;;;;21.25;76.09;99216.16;5076287;28;20037;-64
2023/08/04 10:34:26;;;;;;;0.50;0.50;;;;;;;21.27;76.05;99209.13;5076232;28;20079;-64
2023/08/04 10:37:09;;;;;;;0.40;0.40;;;;;;;21.31;75.53;99209.78;5075009;28;20506;-64
2023/08/04 10:39:40;;;;;;;0.55;0.50;;;;;;;21.32;75.39;99199.34;5076451;28;20052;-64
2023/08/04 10:42:22;;;;;;;0.40;0.40;;;;;;;21.34;74.92;99196.66;5076020;28;20055;-65
2023/08/04 10:44:54;;;;;;;0.50;0.50;;;;;;;21.38;74.57;99202.56;5076380;28;20064;-65
2023/08/04 10:47:35;;;;;;;0.50;0.50;;;;;;;21.56;73.85;99201.56;5075987;28;20068;-65
2023/08/04 10:50:05;;;;;;;0.52;0.52;;;;;;;21.78;73.29;99196.91;5076178;28;20514;-64
2023/08/04 10:52:37;;;;;;;0.85;0.73;;;;;;;22.08;72.47;99199.63;5076112;28;20430;-64
2023/08/04 10:55:08;;;;;;;6.03;0.80;;;;;;;22.48;72.02;99199.91;5075838;28;20044;-64
2023/08/04 10:57:40;;;;;;;0.40;0.40;;;;;;;22.79;71.06;99211.19;5075874;28;20049;-64
2023/08/04 11:00:11;;;;;;;0.50;0.50;;;;;;;22.96;70.09;99205.84;5076059;28;20156;-64
2023/08/04 11:02:40;;;;;;;0.40;0.40;;;;;;;23.01;69.46;99209.84;5075961;28;20453;-64
2023/08/04 11:05:11;;;;;;;0.30;0.30;;;;;;;22.95;68.60;99217.19;5075636;28;20040;-64
2023/08/04 11:07:47;;;;;;;3.50;1.23;;;;;;;22.93;68.77;99216.44;5079440;28;20032;-64
2023/08/04 11:10:17;;;;;;;0.52;0.52;;;;;;;22.95;68.68;99214.56;5095639;28;20052;-63
2023/08/04 11:12:46;;;;;;;0.93;0.82;;;;;;;22.92;68.47;99214.75;5094928;28;20052;-65
2023/08/04 11:15:15;;;;;;;0.50;0.50;;;;;;;22.81;68.11;99199.78;5094945;28;20477;-64
2023/08/04 11:17:44;;;;;;;0.70;0.70;;;;;;;22.93;68.36;99203.44;5095576;28;20040;-65
2023/08/04 11:20:15;;;;;;;0.52;0.52;;;;;;;22.93;67.76;99200.81;5095603;28;20050;-64
2023/08/04 11:22:48;;;;;;;0.43;0.43;;;;;;;22.91;67.58;99205.28;5095878;28;20131;-64
2023/08/04 11:25:17;;;;;;;0.77;0.60;;;;;;;22.99;67.65;99205.66;5095766;28;20401;-64
2023/08/04 11:27:47;;;;;;;0.47;0.47;;;;;;;23.10;67.57;99204.13;5095421;28;20470;-65
2023/08/04 11:30:18;;;;;;;0.60;0.60;;;;;;;23.39;67.74;99204.16;5095422;28;20040;-64
2023/08/04 11:32:50;;;;;;;0.50;0.50;;;;;;;23.69;67.59;99205.72;5095414;28;20455;-65
2023/08/04 11:35:20;;;;;;;0.40;0.40;;;;;;;23.95;66.90;99215.38;5095223;28;20048;-64
2023/08/04 11:37:50;;;;;;;0.50;0.50;;;;;;;23.81;65.76;99218.00;5095208;28;20071;-64
2023/08/04 11:40:21;;;;;;;0.40;0.40;;;;;;;23.84;65.71;99209.16;5095313;28;20105;-65
2023/08/04 11:42:50;;;;;;;0.68;0.68;;;;;;;23.85;64.94;99203.84;5095074;28;20051;-64
2023/08/04 11:45:19;;;;;;;0.82;0.82;;;;;;;23.78;64.40;99201.69;5095330;28;20054;-65
2023/08/04 11:47:48;;;;;;;;;;;;;;;23.70;64.43;99210.03;5095272;28;20504;-64
2023/08/04 11:50:17;;;;;;;1.10;0.70;;;;;;;23.63;64.01;99197.47;5095301;28;20285;-65